Time;durP1;ratioP1;P1;durP2;ratioP2;P2;SDS_P1;SDS_P2;PMS_P1;PMS_P2;Temp;Humidity;BMP_temperature;BMP_pressure;BME280_temperature;BME280_humidity;BME280_pressure;Samples;Min_cycle;Max_cycle;Signal;HPM_P1;HPM_P2
2023/12/18 00:00:07;;;;;;;26.85;15.13;;;;;;;5.43;100.00;103069.59;1015174;29;20308;-55
2023/12/18 00:00:39;;;;;;;34.17;17.50;;;;;;;5.39;100.00;103075.25;1015307;29;20903;-55
2023/12/18 00:01:11;;;;;;;27.20;15.68;;;;;;;5.43;100.00;103066.94;1014396;29;20307;-55
2023/12/18 00:01:42;;;;;;;26.70;16.88;;;;;;;5.39;100.00;103068.16;1015239;29;20391;-55
2023/12/18 00:02:15;;;;;;;25.80;15.98;;;;;;;5.44;100.00;103067.78;1014927;29;20679;-55
2023/12/18 00:02:47;;;;;;;25.98;16.60;;;;;;;5.42;100.00;103070.56;1015192;29;21148;-55
2023/12/18 00:03:19;;;;;;;28.08;17.35;;;;;;;5.38;100.00;103070.94;1015435;29;20311;-55
2023/12/18 00:03:51;;;;;;;27.70;15.88;;;;;;;5.42;100.00;103069.72;1015185;29;20691;-55
2023/12/18 00:04:22;;;;;;;25.75;16.00;;;;;;;5.40;100.00;103071.66;1014486;29;20782;-55
2023/12/18 00:04:54;;;;;;;29.20;16.45;;;;;;;5.38;100.00;103076.22;1015294;29;20288;-55
2023/12/18 00:05:26;;;;;;;25.25;15.85;;;;;;;5.42;100.00;103072.34;1015231;29;20304;-55
2023/12/18 00:05:58;;;;;;;24.60;15.80;;;;;;;5.40;100.00;103071.66;1015149;29;20771;-55
2023/12/18 00:06:30;;;;;;;35.45;19.25;;;;;;;5.38;100.00;103068.31;1015220;29;20679;-53
2023/12/18 00:07:01;;;;;;;30.75;16.23;;;;;;;5.40;100.00;103074.28;1015495;29;20300;-55
2023/12/18 00:07:33;;;;;;;28.58;17.23;;;;;;;5.42;100.00;103062.63;1015124;29;20340;-54
2023/12/18 00:08:05;;;;;;;26.67;16.95;;;;;;;5.42;100.00;103067.91;1014693;29;20303;-55
2023/12/18 00:08:37;;;;;;;28.05;18.33;;;;;;;5.44;100.00;103062.50;1014966;29;20315;-55
2023/12/18 00:09:08;;;;;;;26.55;18.00;;;;;;;5.44;100.00;103065.13;1014707;29;20315;-54
2023/12/18 00:09:40;;;;;;;27.38;17.02;;;;;;;5.44;100.00;103067.78;1014146;29;20343;-55
2023/12/18 00:10:12;;;;;;;27.38;15.88;;;;;;;5.41;100.00;103068.03;1015694;29;20691;-55
2023/12/18 00:10:43;;;;;;;29.95;17.65;;;;;;;5.39;100.00;103067.34;1015000;29;20308;-55
2023/12/18 00:11:15;;;;;;;29.88;16.17;;;;;;;5.40;100.00;103054.00;1015005;29;20648;-55
2023/12/18 00:11:46;;;;;;;27.63;17.50;;;;;;;5.36;100.00;103062.31;1014137;29;20308;-55
2023/12/18 00:12:18;;;;;;;26.45;16.77;;;;;;;5.39;100.00;103056.75;1014876;29;20563;-55
2023/12/18 00:12:49;;;;;;;26.48;16.60;;;;;;;5.39;100.00;103064.69;1014938;29;20362;-55
2023/12/18 00:13:21;;;;;;;25.48;16.23;;;;;;;5.40;100.00;103055.78;1015430;29;20296;-55
2023/12/18 00:13:53;;;;;;;25.77;16.80;;;;;;;5.40;100.00;103058.44;1015616;29;20300;-55
2023/12/18 00:14:24;;;;;;;24.35;17.08;;;;;;;5.44;100.00;103059.84;1014827;29;20802;-55
2023/12/18 00:14:56;;;;;;;28.65;16.45;;;;;;;5.46;100.00;103063.19;1015037;29;20308;-55
2023/12/18 00:15:28;;;;;;;27.02;17.55;;;;;;;5.45;100.00;103053.59;1015029;29;20318;-55
2023/12/18 00:15:59;;;;;;;28.33;17.77;;;;;;;5.42;100.00;103067.06;1014816;29;20976;-55
2023/12/18 00:16:31;;;;;;;24.95;16.02;;;;;;;5.44;100.00;103060.69;1019221;29;20455;-55
2023/12/18 00:17:03;;;;;;;32.30;17.40;;;;;;;5.46;100.00;103063.19;1018995;29;20315;-53
2023/12/18 00:17:35;;;;;;;29.52;18.33;;;;;;;5.47;100.00;103054.31;1018734;29;20382;-55
2023/12/18 00:18:06;;;;;;;30.80;15.20;;;;;;;5.44;100.00;103057.22;1018203;29;20300;-55
2023/12/18 00:18:38;;;;;;;25.85;17.20;;;;;;;5.40;100.00;103059.28;1015108;29;20323;-54
2023/12/18 00:19:10;;;;;;;26.42;17.08;;;;;;;5.41;100.00;103060.13;1014968;29;20361;-55
2023/12/18 00:19:42;;;;;;;28.98;15.98;;;;;;;5.44;100.00;103063.34;1014853;29;20292;-55
2023/12/18 00:20:14;;;;;;;25.73;15.18;;;;;;;5.43;100.00;103053.72;1015415;29;20332;-55
2023/12/18 00:20:45;;;;;;;29.60;16.67;;;;;;;5.46;100.00;103055.28;1013434;29;20664;-55
2023/12/18 00:21:17;;;;;;;32.50;16.10;;;;;;;5.42;100.00;103061.78;1010856;29;20315;-55
2023/12/18 00:21:48;;;;;;;26.52;17.08;;;;;;;5.44;100.00;103062.50;1011305;29;20308;-55
2023/12/18 00:22:20;;;;;;;33.05;16.98;;;;;;;5.46;100.00;103056.13;1013701;29;20668;-54
2023/12/18 00:22:52;;;;;;;25.30;16.65;;;;;;;5.36;100.00;103057.03;1014307;29;20363;-54
2023/12/18 00:23:23;;;;;;;25.73;17.20;;;;;;;5.42;100.00;103053.84;1013745;29;20311;-55
2023/12/18 00:23:55;;;;;;;27.08;15.02;;;;;;;5.39;100.00;103056.75;1015218;29;20675;-55
2023/12/18 00:24:26;;;;;;;23.30;15.88;;;;;;;5.48;100.00;103051.56;1015212;29;20315;-55
2023/12/18 00:24:58;;;;;;;26.17;17.10;;;;;;;5.43;100.00;103059.00;1015021;29;20318;-55
2023/12/18 00:25:30;;;;;;;26.90;17.65;;;;;;;5.47;100.00;103049.84;1015087;29;20371;-55
2023/12/18 00:26:01;;;;;;;35.33;16.75;;;;;;;5.45;100.00;103049.16;1014873;29;20873;-55
2023/12/18 00:26:33;;;;;;;26.15;17.30;;;;;;;5.43;100.00;103050.25;1015193;29;20292;-55
2023/12/18 00:27:05;;;;;;;30.33;17.13;;;;;;;5.41;100.00;103045.09;1015546;29;20358;-55
2023/12/18 00:27:36;;;;;;;23.70;16.70;;;;;;;5.44;100.00;103052.75;1015323;29;20335;-55
2023/12/18 00:28:08;;;;;;;27.92;17.00;;;;;;;5.46;100.00;103050.00;1014964;29;20436;-54
2023/12/18 00:28:40;;;;;;;34.95;18.40;;;;;;;5.42;100.00;103056.50;1015325;29;20621;-55
2023/12/18 00:29:11;;;;;;;31.27;15.55;;;;;;;5.41;100.00;103054.81;1015003;29;20316;-54
2023/12/18 00:29:43;;;;;;;26.05;17.25;;;;;;;5.37;100.00;103054.25;1014908;29;20362;-54
2023/12/18 00:30:14;;;;;;;30.90;15.80;;;;;;;5.43;100.00;103043.16;1015455;29;20303;-55
2023/12/18 00:30:48;;;;;;;30.60;17.15;;;;;;;5.47;100.00;103049.03;1015101;29;20307;-55
2023/12/18 00:31:19;;;;;;;30.40;17.15;;;;;;;5.42;100.00;103049.41;1012388;29;20380;-54
2023/12/18 00:31:51;;;;;;;29.35;16.30;;;;;;;5.42;100.00;103052.06;1011867;29;20308;-55
2023/12/18 00:32:23;;;;;;;25.63;15.55;;;;;;;5.45;100.00;103040.38;1011468;29;20448;-54
2023/12/18 00:32:55;;;;;;;27.38;17.40;;;;;;;5.40;100.00;103047.88;1014101;29;20869;-55
2023/12/18 00:33:26;;;;;;;23.50;15.60;;;;;;;5.43;100.00;103040.50;1014861;29;20292;-55
2023/12/18 00:33:58;;;;;;;27.85;16.38;;;;;;;5.37;100.00;103042.84;1015243;29;20304;-55
2023/12/18 00:34:30;;;;;;;29.02;17.13;;;;;;;5.42;100.00;103045.94;1013195;29;20791;-55
2023/12/18 00:35:02;;;;;;;28.98;16.45;;;;;;;5.38;100.00;103047.16;1015105;29;20632;-55
2023/12/18 00:35:34;;;;;;;28.58;16.15;;;;;;;5.41;100.00;103049.53;1014536;29;20683;-55
2023/12/18 00:36:05;;;;;;;27.73;17.67;;;;;;;5.42;100.00;103045.94;1014596;29;20336;-55
2023/12/18 00:36:37;;;;;;;24.20;15.90;;;;;;;5.43;100.00;103042.31;1010923;29;20296;-54
2023/12/18 00:37:09;;;;;;;23.65;16.02;;;;;;;5.40;100.00;103045.22;1011589;29;20348;-55
2023/12/18 00:37:40;;;;;;;29.88;16.73;;;;;;;5.33;100.00;103044.06;1015630;29;20809;-54
2023/12/18 00:38:12;;;;;;;27.92;16.77;;;;;;;5.36;100.00;103047.28;1015423;29;20327;-54
2023/12/18 00:38:44;;;;;;;26.73;16.67;;;;;;;5.38;100.00;103040.06;1015677;29;21032;-54
2023/12/18 00:39:15;;;;;;;28.42;15.43;;;;;;;5.40;100.00;103037.28;1015931;29;20798;-55
2023/12/18 00:39:47;;;;;;;28.73;15.48;;;;;;;5.38;100.00;103039.22;1015761;29;20773;-55
2023/12/18 00:40:19;;;;;;;30.27;16.00;;;;;;;5.38;100.00;103031.31;1016042;29;20631;-55
2023/12/18 00:40:50;;;;;;;34.33;16.48;;;;;;;5.40;100.00;103038.13;1016091;29;20803;-55
2023/12/18 00:41:22;;;;;;;23.80;17.23;;;;;;;5.39;100.00;103030.34;1015744;29;20303;-55
2023/12/18 00:41:53;;;;;;;29.60;15.77;;;;;;;5.40;100.00;103038.13;1015889;29;20877;-53
2023/12/18 00:42:25;;;;;;;21.52;15.15;;;;;;;5.40;100.00;103032.00;1015908;29;20394;-54
2023/12/18 00:42:57;;;;;;;32.95;16.52;;;;;;;5.41;100.00;103042.44;1015728;29;20315;-55
2023/12/18 00:43:29;;;;;;;26.67;16.10;;;;;;;5.39;100.00;103036.47;1015391;29;20319;-54
2023/12/18 00:44:00;;;;;;;27.05;16.10;;;;;;;5.38;100.00;103034.78;1016091;29;20307;-54
2023/12/18 00:44:32;;;;;;;22.70;14.43;;;;;;;5.38;100.00;103039.22;1016344;29;20303;-54
2023/12/18 00:45:05;;;;;;;23.15;15.50;;;;;;;5.40;100.00;103032.00;1015560;29;20455;-54
2023/12/18 00:45:37;;;;;;;24.10;15.40;;;;;;;5.39;100.00;103044.38;1015725;29;20699;-54
2023/12/18 00:46:09;;;;;;;22.00;15.80;;;;;;;5.39;100.00;103040.91;1015819;29;20818;-54
2023/12/18 00:46:40;;;;;;;23.02;14.93;;;;;;;5.39;100.00;103046.19;1015723;29;20679;-54
2023/12/18 00:47:12;;;;;;;24.35;14.10;;;;;;;5.35;100.00;103040.31;1015807;29;20312;-54
2023/12/18 00:47:44;;;;;;;24.17;15.18;;;;;;;5.29;100.00;103051.41;1016027;29;20289;-54
2023/12/18 00:48:16;;;;;;;24.50;15.23;;;;;;;5.38;100.00;103049.81;1016183;29;20399;-54
2023/12/18 00:48:48;;;;;;;31.65;15.95;;;;;;;5.39;100.00;103043.53;1016158;29;20873;-54
2023/12/18 00:49:19;;;;;;;25.75;16.52;;;;;;;5.38;100.00;103040.06;1015921;29;20310;-54
2023/12/18 00:49:51;;;;;;;25.77;15.73;;;;;;;5.37;100.00;103038.41;1015351;29;20303;-55
2023/12/18 00:50:23;;;;;;;24.90;14.65;;;;;;;5.39;100.00;103043.53;1015874;29;20299;-54
2023/12/18 00:50:55;;;;;;;23.42;15.10;;;;;;;5.32;100.00;103045.03;1015908;29;20429;-55
2023/12/18 00:51:26;;;;;;;25.65;14.40;;;;;;;5.32;100.00;103042.38;1015708;29;20371;-54
2023/12/18 00:51:59;;;;;;;31.25;16.58;;;;;;;5.31;100.00;103038.91;1016228;29;20300;-54
2023/12/18 00:52:30;;;;;;;18.38;14.57;;;;;;;5.36;100.00;103041.16;1016255;29;20298;-55
2023/12/18 00:53:02;;;;;;;26.40;14.70;;;;;;;5.28;100.00;103040.00;1015809;29;20311;-55
2023/12/18 00:53:34;;;;;;;32.75;15.88;;;;;;;5.29;100.00;103040.84;1015685;29;20398;-55
2023/12/18 00:54:05;;;;;;;20.95;14.52;;;;;;;5.30;100.00;103039.88;1015717;29;20300;-55
2023/12/18 00:54:37;;;;;;;22.85;14.82;;;;;;;5.32;100.00;103042.38;1014654;29;20313;-55
2023/12/18 00:55:09;;;;;;;24.35;17.17;;;;;;;5.27;100.00;103038.34;1016215;29;20311;-55
2023/12/18 00:55:41;;;;;;;24.73;15.57;;;;;;;5.31;100.00;103038.91;1015967;29;20391;-55
2023/12/18 00:56:12;;;;;;;21.52;13.60;;;;;;;5.26;100.00;103041.09;1015824;29;20295;-55
2023/12/18 00:56:44;;;;;;;24.42;15.80;;;;;;;5.34;100.00;103040.47;1016115;29;20636;-55
2023/12/18 00:57:16;;;;;;;28.33;13.85;;;;;;;5.38;100.00;103041.88;1014733;29;20315;-55
2023/12/18 00:57:47;;;;;;;20.50;15.02;;;;;;;5.34;100.00;103043.09;1015427;29;20448;-55
2023/12/18 00:58:24;;;;;;;25.75;15.38;;;;;;;5.34;100.00;103040.47;1015639;29;20296;-55
2023/12/18 00:58:55;;;;;;;22.63;14.00;;;;;;;5.30;100.00;103042.53;1014724;29;20662;-55
2023/12/18 00:59:27;;;;;;;25.40;15.57;;;;;;;5.36;100.00;103047.28;1015595;29;20391;-55
2023/12/18 00:59:59;;;;;;;24.33;13.95;;;;;;;5.38;100.00;103039.22;1016269;29;20296;-55
2023/12/18 01:00:31;;;;;;;22.05;15.10;;;;;;;5.34;100.00;103043.09;1016153;29;20363;-55
2023/12/18 01:01:03;;;;;;;26.38;16.13;;;;;;;5.37;100.00;103053.41;1015773;29;20307;-55
2023/12/18 01:01:35;;;;;;;29.35;14.52;;;;;;;5.32;100.00;103050.31;1015902;29;20304;-55
2023/12/18 01:02:06;;;;;;;24.70;15.65;;;;;;;5.39;100.00;103041.75;1015507;29;20327;-55
2023/12/18 01:02:38;;;;;;;22.65;14.43;;;;;;;5.38;100.00;103044.50;1015685;29;20308;-55
2023/12/18 01:03:09;;;;;;;25.77;14.95;;;;;;;5.33;100.00;103046.72;1015915;29;20312;-55
2023/12/18 01:03:41;;;;;;;22.88;14.80;;;;;;;5.35;100.00;103050.06;1016079;29;20311;-55
2023/12/18 01:04:13;;;;;;;21.75;14.60;;;;;;;5.37;100.00;103042.84;1015632;29;20304;-55
2023/12/18 01:04:45;;;;;;;32.97;16.85;;;;;;;5.34;100.00;103033.38;1019281;29;20343;-55
2023/12/18 01:05:17;;;;;;;23.33;16.27;;;;;;;5.37;100.00;103045.47;1019495;29;20307;-55
2023/12/18 01:05:48;;;;;;;24.17;15.70;;;;;;;5.32;100.00;103037.94;1022582;29;20838;-55
2023/12/18 01:06:20;;;;;;;27.38;14.38;;;;;;;5.32;100.00;103035.31;1021451;29;20295;-56
2023/12/18 01:06:52;;;;;;;22.90;15.85;;;;;;;5.28;100.00;103029.44;1019944;29;20327;-55
2023/12/18 01:07:23;;;;;;;23.20;14.93;;;;;;;5.30;100.00;103042.53;1020335;29;20295;-55
2023/12/18 01:07:55;;;;;;;20.83;14.75;;;;;;;5.35;100.00;103031.56;1015323;29;20307;-55
2023/12/18 01:08:26;;;;;;;28.55;15.55;;;;;;;5.33;100.00;103033.50;1015859;29;20664;-55
2023/12/18 01:08:58;;;;;;;26.90;14.60;;;;;;;5.30;100.00;103026.66;1015880;29;20318;-55
2023/12/18 01:09:30;;;;;;;30.20;16.40;;;;;;;5.34;100.00;103027.25;1015450;29;20356;-55
2023/12/18 01:10:02;;;;;;;31.05;15.30;;;;;;;5.36;100.00;103027.94;1015896;29;20296;-55
2023/12/18 01:10:33;;;;;;;25.20;16.17;;;;;;;5.33;100.00;103020.28;1015680;29;20300;-54
2023/12/18 01:11:05;;;;;;;27.13;15.07;;;;;;;5.33;100.00;103020.28;1015215;29;20296;-54
2023/12/18 01:11:36;;;;;;;22.23;15.25;;;;;;;5.28;100.00;103021.50;1015319;29;20340;-55
2023/12/18 01:12:08;;;;;;;22.33;14.68;;;;;;;5.28;100.00;103020.66;1015259;29;20323;-54
2023/12/18 01:12:40;;;;;;;24.90;14.05;;;;;;;5.31;100.00;103027.50;1015807;29;20633;-55
2023/12/18 01:13:12;;;;;;;23.58;14.90;;;;;;;5.26;100.00;103020.81;1015950;29;20307;-55
2023/12/18 01:13:43;;;;;;;24.83;14.52;;;;;;;5.28;100.00;103024.16;1015953;29;20303;-55
2023/12/18 01:14:15;;;;;;;23.75;14.82;;;;;;;5.30;100.00;103020.53;1015826;29;20296;-55
2023/12/18 01:14:46;;;;;;;22.77;14.38;;;;;;;5.29;100.00;103030.28;1015687;29;20801;-55
2023/12/18 01:15:18;;;;;;;24.58;15.82;;;;;;;5.32;100.00;103024.72;1015668;29;20303;-55
2023/12/18 01:15:50;;;;;;;23.08;14.88;;;;;;;5.30;100.00;103020.53;1015528;29;20806;-54
2023/12/18 01:16:22;;;;;;;26.65;15.38;;;;;;;5.27;100.00;103022.47;1015706;29;20459;-55
2023/12/18 01:16:54;;;;;;;25.52;15.23;;;;;;;5.28;100.00;103018.88;1015974;29;20299;-55
2023/12/18 01:17:26;;;;;;;25.70;14.73;;;;;;;5.30;100.00;103015.25;1016035;29;20300;-55
2023/12/18 01:18:07;;;;;;;27.35;15.88;;;;;;;5.29;100.00;103019.72;1015964;29;20323;-55
2023/12/18 01:18:39;;;;;;;22.80;15.80;;;;;;;5.29;100.00;103019.72;1015724;29;21940;-55
2023/12/18 01:19:11;;;;;;;23.90;14.90;;;;;;;5.26;100.00;103020.81;1015743;29;20327;-55
2023/12/18 01:19:43;;;;;;;33.10;14.57;;;;;;;5.33;100.00;103028.22;1015992;29;20296;-55
2023/12/18 01:20:14;;;;;;;26.50;14.82;;;;;;;5.29;100.00;103017.06;1015756;29;20716;-55
2023/12/18 01:20:46;;;;;;;23.20;14.65;;;;;;;5.27;100.00;103022.47;1015764;29;20299;-55
2023/12/18 01:21:18;;;;;;;22.63;15.50;;;;;;;5.30;100.00;103020.53;1015190;29;20311;-54
2023/12/18 01:21:49;;;;;;;24.70;16.55;;;;;;;5.25;100.00;103021.78;1015822;29;20300;-55
2023/12/18 01:22:21;;;;;;;29.52;16.27;;;;;;;5.25;100.00;103019.13;1015730;29;20304;-55
2023/12/18 01:22:53;;;;;;;28.83;15.48;;;;;;;5.25;100.00;103021.78;1015947;29;20858;-54
2023/12/18 01:23:35;;;;;;;22.85;13.10;;;;;;;5.28;100.00;103021.50;1014860;29;20304;-55
2023/12/18 01:24:06;;;;;;;25.50;15.15;;;;;;;5.28;100.00;103024.16;1015806;29;20304;-55
2023/12/18 01:24:38;;;;;;;25.48;14.73;;;;;;;5.34;100.00;103027.25;1015422;29;20304;-55
2023/12/18 01:25:09;;;;;;;23.13;14.60;;;;;;;5.27;100.00;103022.47;1015860;29;20296;-55
2023/12/18 01:25:41;;;;;;;28.05;14.32;;;;;;;5.24;100.00;103020.09;1016046;29;20799;-55
2023/12/18 01:26:13;;;;;;;24.00;15.48;;;;;;;5.29;100.00;103027.63;1015515;29;20303;-55
2023/12/18 01:26:44;;;;;;;22.65;14.95;;;;;;;5.24;100.00;103033.31;1015759;29;20292;-55
2023/12/18 01:27:16;;;;;;;26.25;16.08;;;;;;;5.27;100.00;103026.94;1015659;29;20314;-55
2023/12/18 01:27:50;;;;;;;25.70;14.43;;;;;;;5.22;100.00;103029.94;1015541;29;20324;-55
2023/12/18 01:28:21;;;;;;;20.00;13.93;;;;;;;5.30;100.00;103025.81;1015707;29;20408;-55
2023/12/18 01:28:53;;;;;;;27.35;14.95;;;;;;;5.30;100.00;103031.13;1016341;29;20299;-55
2023/12/18 01:29:24;;;;;;;26.02;13.13;;;;;;;5.26;100.00;103028.72;1015904;29;20306;-55
2023/12/18 01:29:56;;;;;;;23.38;13.95;;;;;;;5.28;100.00;103023.31;1015662;29;20731;-55
2023/12/18 01:30:28;;;;;;;25.00;14.90;;;;;;;5.25;100.00;103019.13;1015232;29;20330;-55
2023/12/18 01:30:59;;;;;;;26.45;13.88;;;;;;;5.25;100.00;103034.97;1015680;29;20522;-55
2023/12/18 01:31:31;;;;;;;28.60;14.48;;;;;;;5.25;100.00;103029.69;1015552;29;21309;-55
2023/12/18 01:32:03;;;;;;;21.50;13.80;;;;;;;5.24;100.00;103030.66;1015919;29;20435;-55
2023/12/18 01:32:35;;;;;;;22.55;13.70;;;;;;;5.22;100.00;103035.25;1016102;29;20306;-55
2023/12/18 01:33:07;;;;;;;24.23;14.30;;;;;;;5.20;100.00;103029.25;1015532;29;20304;-55
2023/12/18 01:33:38;;;;;;;24.67;15.18;;;;;;;5.25;100.00;103026.22;1015590;29;20303;-55
2023/12/18 01:34:10;;;;;;;25.17;13.95;;;;;;;5.24;100.00;103033.31;1015783;29;20711;-55
2023/12/18 01:34:42;;;;;;;24.65;14.13;;;;;;;5.31;100.00;103036.28;1015737;29;20315;-55
2023/12/18 01:35:14;;;;;;;23.13;14.63;;;;;;;5.28;100.00;103036.53;1015512;29;20283;-55
2023/12/18 01:35:45;;;;;;;22.30;14.38;;;;;;;5.31;100.00;103038.06;1016211;29;20323;-55
2023/12/18 01:36:17;;;;;;;24.98;13.77;;;;;;;5.23;100.00;103034.28;1013889;29;20293;-53
2023/12/18 01:36:48;;;;;;;20.42;15.10;;;;;;;5.25;100.00;103034.97;1015560;29;20318;-55
2023/12/18 01:37:20;;;;;;;19.15;14.27;;;;;;;5.23;100.00;103047.47;1015603;29;20815;-55
2023/12/18 01:37:52;;;;;;;25.77;14.73;;;;;;;5.26;100.00;103036.66;1015435;29;20311;-54
2023/12/18 01:38:23;;;;;;;25.67;14.73;;;;;;;5.24;100.00;103043.88;1015246;29;20782;-55
2023/12/18 01:38:55;;;;;;;27.20;15.85;;;;;;;5.26;100.00;103047.22;1015588;29;20359;-55
2023/12/18 01:39:27;;;;;;;28.67;16.08;;;;;;;5.20;100.00;103046.88;1014858;29;20311;-55
2023/12/18 01:39:59;;;;;;;27.63;14.75;;;;;;;5.19;100.00;103042.56;1011351;29;20315;-55
2023/12/18 01:40:31;;;;;;;25.63;14.65;;;;;;;5.25;100.00;103042.91;1015087;29;20315;-55
2023/12/18 01:41:02;;;;;;;22.70;14.65;;;;;;;5.30;100.00;103036.41;1015652;29;20304;-53
2023/12/18 01:41:34;;;;;;;17.40;13.20;;;;;;;5.28;100.00;103031.25;1015590;29;20304;-55
2023/12/18 01:42:06;;;;;;;24.85;15.50;;;;;;;5.26;100.00;103030.53;1018834;29;20439;-55
2023/12/18 01:42:39;;;;;;;33.40;14.65;;;;;;;5.24;100.00;103035.09;1019670;29;20447;-54
2023/12/18 01:43:24;;;;;;;25.98;14.00;;;;;;;5.26;100.00;103036.66;1017752;29;20336;-55
2023/12/18 01:43:56;;;;;;;20.67;14.20;;;;;;;5.25;100.00;103036.78;1015558;29;20310;-55
2023/12/18 01:44:27;;;;;;;27.77;16.08;;;;;;;5.25;100.00;103034.97;1015390;29;20662;-54
2023/12/18 01:44:59;;;;;;;23.35;15.05;;;;;;;5.27;100.00;103038.34;1015760;29;20817;-55
2023/12/18 01:45:31;;;;;;;27.48;16.33;;;;;;;5.25;100.00;103039.44;1015488;29;20292;-55
2023/12/18 01:46:03;;;;;;;25.48;14.75;;;;;;;5.27;100.00;103042.78;1015826;29;20304;-55
2023/12/18 01:46:35;;;;;;;21.58;13.43;;;;;;;5.24;100.00;103033.31;1016114;29;20407;-55
2023/12/18 01:47:07;;;;;;;23.30;15.35;;;;;;;5.24;100.00;103038.59;1013736;29;20322;-55
2023/12/18 01:47:39;;;;;;;22.38;14.80;;;;;;;5.29;100.00;103038.19;1011791;29;20344;-55
2023/12/18 01:48:11;;;;;;;26.58;15.00;;;;;;;5.31;100.00;103032.78;1014849;29;20331;-55
2023/12/18 01:48:43;;;;;;;20.63;14.10;;;;;;;5.32;100.00;103030.03;1015407;29;20308;-55
2023/12/18 01:49:15;;;;;;;26.92;14.52;;;;;;;5.31;100.00;103032.78;1015674;29;20307;-55
2023/12/18 01:49:49;;;;;;;26.98;14.88;;;;;;;5.26;100.00;103031.38;1015790;29;20323;-55
2023/12/18 01:50:20;;;;;;;24.60;16.70;;;;;;;5.29;100.00;103032.91;1015992;29;20349;-55
2023/12/18 01:50:53;;;;;;;25.58;14.98;;;;;;;5.32;100.00;103034.47;1015701;29;20303;-55
2023/12/18 01:51:25;;;;;;;30.42;15.40;;;;;;;5.26;100.00;103026.09;1014947;29;20799;-55
2023/12/18 01:51:58;;;;;;;22.25;13.63;;;;;;;5.30;100.00;103031.94;1015285;29;20311;-55
2023/12/18 01:52:30;;;;;;;27.17;14.38;;;;;;;5.27;100.00;103032.22;1014529;29;20305;-55
2023/12/18 01:53:01;;;;;;;21.10;15.07;;;;;;;5.30;100.00;103037.22;1022620;29;20310;-55
2023/12/18 01:53:38;;;;;;;19.10;14.90;;;;;;;5.32;100.00;103034.47;1022681;29;20298;-54
2023/12/18 01:54:10;;;;;;;26.98;14.45;;;;;;;5.32;100.00;103039.75;1016229;29;20356;-55
2023/12/18 01:54:43;;;;;;;29.95;16.40;;;;;;;5.32;100.00;103029.19;1013473;29;20304;-55
2023/12/18 01:55:15;;;;;;;26.08;16.13;;;;;;;5.25;100.00;103029.69;1008146;29;20383;-55
2023/12/18 01:55:47;;;;;;;24.00;14.10;;;;;;;5.25;100.00;103027.06;1012731;29;20305;-55
2023/12/18 01:56:22;;;;;;;26.42;14.40;;;;;;;5.26;100.00;103027.91;1015548;29;20837;-55
2023/12/18 01:56:54;;;;;;;27.95;16.00;;;;;;;5.25;100.00;103034.97;1017470;29;20367;-55
2023/12/18 01:57:26;;;;;;;22.23;14.13;;;;;;;5.30;100.00;103031.13;1019060;29;20314;-55
2023/12/18 01:57:58;;;;;;;20.88;15.90;;;;;;;5.31;100.00;103032.78;1018977;29;20315;-55
2023/12/18 01:58:31;;;;;;;18.30;14.00;;;;;;;5.33;100.00;103033.50;1019146;29;20307;-55
2023/12/18 01:59:05;;;;;;;27.95;14.68;;;;;;;5.33;100.00;103029.06;1019386;29;20805;-55
2023/12/18 01:59:37;;;;;;;20.52;14.93;;;;;;;5.28;100.00;103029.44;1018181;29;20308;-55
2023/12/18 02:00:09;;;;;;;26.10;15.10;;;;;;;5.26;100.00;103030.53;1015459;29;20312;-55
2023/12/18 02:00:41;;;;;;;23.52;14.57;;;;;;;5.27;100.00;103022.47;1015417;29;20809;-54
2023/12/18 02:01:13;;;;;;;20.15;13.40;;;;;;;5.28;100.00;103029.44;1011830;29;20898;-54
2023/12/18 02:01:46;;;;;;;22.13;14.13;;;;;;;5.30;100.00;103025.81;1015235;29;20300;-54
2023/12/18 02:02:18;;;;;;;26.95;13.95;;;;;;;5.32;100.00;103027.38;1013454;29;20307;-55
2023/12/18 02:02:49;;;;;;;24.67;14.27;;;;;;;5.30;100.00;103020.53;1015258;29;20315;-55
2023/12/18 02:03:22;;;;;;;23.08;14.43;;;;;;;5.31;100.00;103022.22;1018627;29;20837;-55
2023/12/18 02:03:54;;;;;;;20.15;14.40;;;;;;;5.32;100.00;103022.09;1019282;29;20303;-55
2023/12/18 02:04:26;;;;;;;23.02;14.40;;;;;;;5.31;100.00;103017.78;1014441;29;20315;-55
2023/12/18 02:04:58;;;;;;;23.00;14.40;;;;;;;5.24;100.00;103022.75;1007448;29;20297;-54
2023/12/18 02:05:30;;;;;;;26.92;14.73;;;;;;;5.27;100.00;103017.19;1009802;29;20335;-55
2023/12/18 02:06:04;;;;;;;22.50;13.68;;;;;;;5.27;100.00;103017.19;1009750;29;20297;-55
2023/12/18 02:06:36;;;;;;;24.13;15.65;;;;;;;5.28;100.00;103018.88;1011996;29;20300;-54
2023/12/18 02:07:08;;;;;;;26.40;15.13;;;;;;;5.31;100.00;103016.94;1015460;29;20570;-54
2023/12/18 02:07:40;;;;;;;21.05;13.57;;;;;;;5.29;100.00;103019.72;1012320;29;20314;-55
2023/12/18 02:08:12;;;;;;;18.65;14.85;;;;;;;5.33;100.00;103018.47;1014136;29;20311;-55
2023/12/18 02:08:43;;;;;;;22.17;14.68;;;;;;;5.33;100.00;103021.13;1015361;29;20311;-55
2023/12/18 02:09:15;;;;;;;23.95;14.88;;;;;;;5.32;100.00;103021.25;1015503;29;20663;-55
2023/12/18 02:09:47;;;;;;;18.77;13.98;;;;;;;5.32;100.00;103018.59;1014033;29;20304;-55
2023/12/18 02:10:19;;;;;;;22.27;13.98;;;;;;;5.32;100.00;103023.91;1015074;29;20455;-55
2023/12/18 02:10:52;;;;;;;24.30;14.48;;;;;;;5.29;100.00;103025.00;1015470;29;20651;-55
2023/12/18 02:11:24;;;;;;;26.15;15.23;;;;;;;5.32;100.00;103016.81;1011348;29;20315;-54
2023/12/18 02:11:55;;;;;;;26.20;15.45;;;;;;;5.28;100.00;103024.16;1011900;29;20312;-55
2023/12/18 02:12:27;;;;;;;21.20;14.10;;;;;;;5.38;100.00;103018.09;1013297;29;20419;-55
2023/12/18 02:12:58;;;;;;;21.38;14.18;;;;;;;5.32;100.00;103013.31;1012976;29;20693;-54
2023/12/18 02:13:30;;;;;;;25.23;14.90;;;;;;;5.34;100.00;103016.69;1015630;29;20292;-55
2023/12/18 02:14:02;;;;;;;21.83;15.00;;;;;;;5.38;100.00;103012.81;1015757;29;20787;-55
2023/12/18 02:14:33;;;;;;;16.90;14.43;;;;;;;5.39;100.00;103014.47;1015603;29;20308;-55
2023/12/18 02:15:05;;;;;;;26.88;16.40;;;;;;;5.40;100.00;103021.44;1015421;29;20296;-55
2023/12/18 02:15:37;;;;;;;26.45;16.65;;;;;;;5.37;100.00;103011.97;1016053;29;20355;-55
2023/12/18 02:16:10;;;;;;;20.50;15.50;;;;;;;5.39;100.00;103019.75;1015047;29;20292;-55
2023/12/18 02:16:41;;;;;;;23.65;13.48;;;;;;;5.40;100.00;103011.72;1017183;29;20307;-54
2023/12/18 02:17:13;;;;;;;30.40;15.65;;;;;;;5.42;100.00;103016.84;1015983;29;20820;-55
2023/12/18 02:17:45;;;;;;;20.35;15.27;;;;;;;5.36;100.00;103014.75;1015519;29;20310;-54
2023/12/18 02:18:17;;;;;;;18.77;14.10;;;;;;;5.39;100.00;103017.97;1018401;29;20785;-55
2023/12/18 02:18:49;;;;;;;23.17;15.70;;;;;;;5.41;100.00;103013.38;1016176;29;20304;-55
2023/12/18 02:19:28;;;;;;;28.40;15.70;;;;;;;5.41;100.00;103015.19;1015346;29;20315;-55
2023/12/18 02:20:07;;;;;;;21.02;15.10;;;;;;;5.44;100.00;103017.56;1016660;29;20390;-54
2023/12/18 02:20:42;;;;;;;24.77;14.65;;;;;;;5.46;100.00;103010.34;1013787;29;20384;-54
2023/12/18 02:21:21;;;;;;;22.92;15.30;;;;;;;5.43;100.00;103013.25;1015934;29;20708;-55
2023/12/18 02:21:57;;;;;;;18.25;13.57;;;;;;;5.43;100.00;103021.19;1014042;29;20366;-54
2023/12/18 02:22:43;;;;;;;30.13;16.70;;;;;;;5.41;100.00;103017.81;1015488;29;20686;-55
2023/12/18 02:23:15;;;;;;;27.23;15.10;;;;;;;5.45;100.00;103019.25;1015577;29;20299;-55
2023/12/18 02:23:47;;;;;;;27.33;14.80;;;;;;;5.40;100.00;103026.72;1015627;29;20402;-55
2023/12/18 02:24:19;;;;;;;22.75;15.55;;;;;;;5.41;100.00;103023.13;1015533;29;20304;-55
2023/12/18 02:24:50;;;;;;;23.33;15.38;;;;;;;5.46;100.00;103015.63;1015415;29;20675;-55
2023/12/18 02:25:22;;;;;;;29.67;15.55;;;;;;;5.43;100.00;103023.81;1015223;29;20304;-55
2023/12/18 02:25:54;;;;;;;28.08;16.25;;;;;;;5.43;100.00;103018.53;1015492;29;20319;-55